Main page
METAR-TAF:

METAR-TAF

Airports :

Treviso, Italy

Treviso Airport

latitude: 45-39N, longitude: 012-11E, elevation: 18 m

Current weather observation

The report was made 19 minutes ago, at 22:20 UTC
Wind 4 kt from the Northeast
Temperature 21°C
Humidity 78%
Pressure 1017 hPa
Visibility 10 km or more

METAR: LIPH 232220Z AUTO 04004KT 9999 NCD 21/17 Q1017

Time: 00:39 (22:39 UTC)

Forecast

The report was made 5 hours and 39 minutes ago, at 17:00 UTC
Forecast valid from 23 at 18 UTC to 24 at 18 UTC
Wind 5 kt from variable directions
Visibility 10 km or more
no clouds below 1500 m and no cumulonimbus
Temporary
from 23 at 18 UTC to 23 at 23 UTC
rain
Temporary
from 24 at 00 UTC to 24 at 05 UTC
Visibility: 3000 m
mist

TAF: LIPH 231700Z 2318/2418 VRB05KT CAVOK TEMPO 2318/2323 RA TEMPO 2400/2405 3000 BR

Weather observations and forecasts of more than 4000 airports (METAR and TAF reports).

The available stations are represented by yellow and red dots on the map.

Hover mouse over dot to see the name of the station.

Then click to see weather observations and forecasts.

To change the map : click on the green buttons with a black cross to zoom in, on the green button with a dash to zoom out, or on the green arrows for adjacent maps.


METAR-TAF: